메인 페이지
METAR-TAF:

METAR-TAF

공항 :

그린우드, 미시시피, 미국

위도: 33-29-33N, 경도: 090-05-01W, 고도: 47m

현재 날씨관측

예보는 35분 전, 01:53시(UTC)에 발표되었습니다.
북북서8kt
온도 6°C
습도 56%
기압 1025 hPa
시정: 16.1km
고도 5500ft 상공 흐림

METAR: KGWO 270153Z AUTO 34008KT 10SM OVC055 06/M02 A3028 RMK AO2 SLP255 T00561017

시각: 20:28 (02:28 UTC)

예보

예보는 3 시간 8분 전, 23:20시(UTC)에 발표되었습니다.
예보 대상 시간: 27일 00시부터 27일 24시까지 (UTC)
북북서12kt, 순간 최대 풍속 20kt
시정: 10km
고도 4000ft 상공 구름 보통
고도 5000ft 상공 구름 많음
27일 0300시부터 (UTC)
북서5kt
시정: 10km
맑음

TAF: KGWO 262320Z 2700/2724 33012G20KT P6SM SCT040 BKN050 FM270300 32005KT P6SM SKC

4,000개 이상의 공항 관측 자료 및 예보 (METAR 및 TAF 보고).

지도상에서 검색 가능한 기상관측소가 노란 점과 빨간 점으로 표시되어 있습니다.

기상관측소 명을 보려면 표시 위로 마우스를 이동하세요.

날씨 관측과 예보를 보려면 클릭하세요.

지도 변경 : 확대하려면 엑스 표시가 있는 녹색 버튼, 축소하려면 빼기 표시가 있는 녹색 버튼, 다음 페이지의 지도를 보려면 녹색 화살표를 클릭하세요.


METAR-TAF: